首页
METAR-TAF:

METAR-TAF

机场 :

安克拉治, 阿拉斯加州, 美国

泰德·史蒂文斯安克雷奇國際機場

纬度: 61-10-28N, 经度: 149-59-46W, 海拔: 44米

当前天气观测

该预报发布于15分钟前的23:53 UTC
风速3节,风向
温度 2°C
湿度 75%
气压 995 hPa
能見度: 16.1公里
少量云层高于6500英尺
多云层高于11000英尺
多云层高于20000英尺

METAR: PANC 172353Z 35003KT 10SM FEW065 BKN110 BKN200 02/M02 A2939 RMK AO2 SLP954 4/005 VIRGA DSNT N T00171022 10022 21011 51007 $

时间: 15:08 (00:08 UTC)

预报

该预报发布于32分钟前的23:36 UTC
预报有效从18日的 00点(UTC)到 19日的 06点(UTC)
风速4节,风向多变
能見度: 10公里
多云层高于12000英尺

TAF: PANC 172336Z 1800/1906 VRB04KT P6SM BKN120

超过4000个机场的气象观测和天气预报(METAR&TAF报告)。

可查询的气象台以黄色和红色小点在地图上表示。

将鼠标移到小点上方,可查看气象台名称。

然后点击查看天气观测和预报。

如需切换地图:点击带黑十字的绿色按钮放大地图;点击带横线的绿色按钮缩小地图;或者点击绿色箭头查看邻近地区的地图。


METAR-TAF: